^^
Meteo Knjazevac Station Historical Data
Daily Summary for September 6, 2021 Units:  Metric    English   Both
Daily Weekly Monthly Yearly Custom
  High: Low: Average:
Temperature: 28.8 °C 16.6 °C 22.8 °C
Dew Point: 16.9 °C 12.3 °C 15.6 °C
Humidity: 89% 45% 66%
Wind Speed: 19.3km/h 0km/h 6.9km/h
Wind Gust: 33.8km/h - -
Wind- - WSW
Pressure: 1014.1 hPa 1009.4 hPa -
Precipitation: 0 mm    
Historical Graphs
 
 
Tabular Data for September 6, 2021
Time Temperature Dew Point Pressure Wind Wind Speed Wind Gust Humidity Rainfall Rate (Hourly) solar Conditions
00:00 20.8 °C 16.8 °C 1009.4 hPa SSE 1.6 km/h 6.4 km/h 78% 0 mm 0 W/m2
00:10 20.6 °C 16.8 °C 1009.4 hPa NW 3.2 km/h 6.4 km/h 79% 0 mm 0 W/m2
00:20 20.5 °C 16.7 °C 1009.4 hPa Calm   6.4 km/h 79% 0 mm 0 W/m2
00:30 20.4 °C 16.8 °C 1009.4 hPa Calm   4.8 km/h 80% 0 mm 0 W/m2
00:40 20.2 °C 16.4 °C 1009.4 hPa North 1.6 km/h 4.8 km/h 79% 0 mm 0 W/m2
00:50 20.1 °C 16.7 °C 1009.4 hPa WNW 1.6 km/h 3.2 km/h 81% 0 mm 0 W/m2
01:00 19.9 °C 16.6 °C 1009.4 hPa WNW 3.2 km/h 4.8 km/h 81% 0 mm 0 W/m2
01:10 19.8 °C 16.4 °C 1009.4 hPa NNW 1.6 km/h 8 km/h 81% 0 mm 0 W/m2
01:20 19.7 °C 16.7 °C 1009.4 hPa WNW 3.2 km/h 6.4 km/h 83% 0 mm 0 W/m2
01:30 19.6 °C 16.6 °C 1009.4 hPa WNW 3.2 km/h 8 km/h 83% 0 mm 0 W/m2
01:40 19.4 °C 16.6 °C 1009.4 hPa West 3.2 km/h 8 km/h 84% 0 mm 0 W/m2
01:50 19.3 °C 16.5 °C 1009.4 hPa NW 3.2 km/h 6.4 km/h 84% 0 mm 0 W/m2
02:00 19.1 °C 16.3 °C 1009.4 hPa West 3.2 km/h 11.3 km/h 84% 0 mm 0 W/m2
02:10 19 °C 16.2 °C 1009.7 hPa WSW 3.2 km/h 8 km/h 84% 0 mm 0 W/m2
02:20 18.9 °C 16.1 °C 1009.7 hPa WSW 3.2 km/h 8 km/h 84% 0 mm 0 W/m2
02:30 18.9 °C 16.2 °C 1009.7 hPa West 1.6 km/h 4.8 km/h 84% 0 mm 0 W/m2
02:40 19.1 °C 16.3 °C 1009.7 hPa NNW 3.2 km/h 4.8 km/h 84% 0 mm 0 W/m2
02:50 19.1 °C 16.3 °C 1009.7 hPa West 3.2 km/h 3.2 km/h 84% 0 mm 0 W/m2
03:00 19.2 °C 16.2 °C 1009.7 hPa North 1.6 km/h 8 km/h 83% 0 mm 0 W/m2
03:10 19.3 °C 16.3 °C 1010 hPa NE 1.6 km/h 6.4 km/h 83% 0 mm 0 W/m2
03:20 19.2 °C 16.4 °C 1010 hPa WNW 3.2 km/h 6.4 km/h 84% 0 mm 0 W/m2
03:30 19.1 °C 16.5 °C 1010 hPa West 4.8 km/h 8 km/h 85% 0 mm 0 W/m2
03:40 19.1 °C 16.3 °C 1010 hPa WNW 1.6 km/h 8 km/h 84% 0 mm 0 W/m2
03:50 19.1 °C 16.3 °C 1010 hPa SW 3.2 km/h 9.7 km/h 84% 0 mm 0 W/m2
04:00 19 °C 16.2 °C 1010 hPa WSW 4.8 km/h 11.3 km/h 84% 0 mm 0 W/m2
04:10 19.1 °C 16.3 °C 1010.4 hPa West 4.8 km/h 11.3 km/h 84% 0 mm 0 W/m2
04:20 19.1 °C 16.3 °C 1010.4 hPa West 1.6 km/h 9.7 km/h 84% 0 mm 0 W/m2
04:30 19 °C 16.2 °C 1010.4 hPa SW 1.6 km/h 3.2 km/h 84% 0 mm 0 W/m2
04:40 18.8 °C 16.1 °C 1010.4 hPa West 1.6 km/h 4.8 km/h 84% 0 mm 0 W/m2
04:50 18.7 °C 16.1 °C 1010.4 hPa NNE 3.2 km/h 4.8 km/h 85% 0 mm 0 W/m2
05:00 18.6 °C 16.1 °C 1010.7 hPa NE 1.6 km/h 4.8 km/h 85% 0 mm 0 W/m2
05:10 18.5 °C 15.9 °C 1010.7 hPa North 1.6 km/h 4.8 km/h 85% 0 mm 0 W/m2
05:20 18.3 °C 15.9 °C 1010.7 hPa Calm   4.8 km/h 86% 0 mm 0 W/m2
05:30 18.2 °C 15.8 °C 1011.1 hPa Calm   3.2 km/h 86% 0 mm 4 W/m2
05:40 18.2 °C 16.2 °C 1011.1 hPa Calm   6.4 km/h 88% 0 mm 8 W/m2
05:50 18.1 °C 16.1 °C 1011.1 hPa SW 1.6 km/h 4.8 km/h 88% 0 mm 16 W/m2
06:00 18 °C 16 °C 1011.1 hPa NE 1.6 km/h 4.8 km/h 88% 0 mm 30 W/m2
06:10 17.9 °C 16.1 °C 1011.1 hPa SSW 3.2 km/h 9.7 km/h 89% 0 mm 40 W/m2
06:20 18 °C 16.2 °C 1011.1 hPa SSW 3.2 km/h 9.7 km/h 89% 0 mm 44 W/m2
06:30 18 °C 16.2 °C 1011.4 hPa SSE 1.6 km/h 8 km/h 89% 0 mm 53 W/m2
06:40 18.2 °C 16.3 °C 1011.4 hPa ENE 1.6 km/h 4.8 km/h 89% 0 mm 58 W/m2
06:50 18.4 °C 16.6 °C 1011.7 hPa North 1.6 km/h 3.2 km/h 89% 0 mm 83 W/m2
07:00 18.7 °C 16.8 °C 1011.7 hPa WNW 3.2 km/h 6.4 km/h 89% 0 mm 87 W/m2
07:10 19 °C 16.9 °C 1011.7 hPa SW 9.7 km/h 16.1 km/h 88% 0 mm 79 W/m2
07:20 19.4 °C 16.6 °C 1011.7 hPa WSW 12.9 km/h 19.3 km/h 84% 0 mm 106 W/m2
07:30 19.6 °C 16.2 °C 1011.7 hPa SW 9.7 km/h 20.9 km/h 81% 0 mm 126 W/m2
07:40 19.8 °C 16.2 °C 1011.7 hPa SW 9.7 km/h 20.9 km/h 80% 0 mm 160 W/m2
07:50 20 °C 16.2 °C 1011.7 hPa WSW 8 km/h 20.9 km/h 79% 0 mm 383 W/m2
08:00 20.2 °C 16.2 °C 1011.7 hPa West 9.7 km/h 20.9 km/h 78% 0 mm 414 W/m2
08:10 20.4 °C 16.2 °C 1011.7 hPa West 11.3 km/h 19.3 km/h 77% 0 mm 444 W/m2
08:20 20.7 °C 16.1 °C 1011.7 hPa West 9.7 km/h 17.7 km/h 75% 0 mm 475 W/m2
08:30 21 °C 16.2 °C 1011.7 hPa WSW 9.7 km/h 19.3 km/h 74% 0 mm 505 W/m2
08:40 21.4 °C 16.3 °C 1011.7 hPa West 12.9 km/h 22.5 km/h 73% 0 mm 534 W/m2
08:50 21.5 °C 16.2 °C 1011.7 hPa West 11.3 km/h 22.5 km/h 72% 0 mm 563 W/m2
09:00 21.9 °C 16.2 °C 1011.7 hPa West 11.3 km/h 22.5 km/h 70% 0 mm 591 W/m2
09:10 22.6 °C 16.4 °C 1011.7 hPa West 11.3 km/h 24.1 km/h 68% 0 mm 619 W/m2
09:20 23 °C 16.1 °C 1011.7 hPa West 12.9 km/h 20.9 km/h 65% 0 mm 645 W/m2
09:30 23.4 °C 16.4 °C 1011.7 hPa WSW 9.7 km/h 19.3 km/h 65% 0 mm 671 W/m2
09:40 23.7 °C 16.2 °C 1011.7 hPa WSW 12.9 km/h 19.3 km/h 63% 0 mm 696 W/m2
09:50 24 °C 16.5 °C 1011.4 hPa WSW 11.3 km/h 20.9 km/h 63% 0 mm 720 W/m2
10:00 24.2 °C 16.4 °C 1011.4 hPa WSW 14.5 km/h 22.5 km/h 62% 0 mm 742 W/m2
10:10 24.6 °C 16.8 °C 1011.4 hPa WSW 11.3 km/h 20.9 km/h 62% 0 mm 764 W/m2
10:20 24.8 °C 16.5 °C 1011.4 hPa WSW 12.9 km/h 20.9 km/h 60% 0 mm 784 W/m2
10:30 25.1 °C 16.5 °C 1011.4 hPa WSW 11.3 km/h 19.3 km/h 59% 0 mm 803 W/m2
10:40 25.2 °C 16.6 °C 1011.7 hPa West 11.3 km/h 20.9 km/h 59% 0 mm 821 W/m2
10:50 25.5 °C 16.3 °C 1011.4 hPa WSW 12.9 km/h 19.3 km/h 57% 0 mm 161 W/m2
11:00 25.7 °C 16.6 °C 1011.4 hPa WSW 11.3 km/h 19.3 km/h 57% 0 mm 852 W/m2
11:10 25.8 °C 16.6 °C 1011.4 hPa WSW 12.9 km/h 24.1 km/h 57% 0 mm 139 W/m2
11:20 25.8 °C 16.6 °C 1011.7 hPa WSW 9.7 km/h 24.1 km/h 57% 0 mm 552 W/m2
11:30 25.8 °C 16.6 °C 1011.4 hPa West 14.5 km/h 24.1 km/h 57% 0 mm 813 W/m2
11:40 25.9 °C 16.2 °C 1011.4 hPa WSW 14.5 km/h 25.7 km/h 55% 0 mm 309 W/m2
11:50 26.1 °C 16.1 °C 1011.4 hPa WSW 14.5 km/h 24.1 km/h 54% 0 mm 906 W/m2
12:00 26.4 °C 16.1 °C 1011.1 hPa WSW 12.9 km/h 24.1 km/h 53% 0 mm 912 W/m2
12:10 26.7 °C 16.6 °C 1011.1 hPa WSW 12.9 km/h 24.1 km/h 54% 0 mm 917 W/m2
12:20 26.7 °C 16.3 °C 1011.1 hPa WSW 11.3 km/h 29 km/h 53% 0 mm 920 W/m2
12:30 26.9 °C 16.5 °C 1011.1 hPa WSW 14.5 km/h 24.1 km/h 53% 0 mm 922 W/m2
12:40 27 °C 16.3 °C 1011.1 hPa WSW 16.1 km/h 25.7 km/h 52% 0 mm 922 W/m2
12:50 27 °C 16.3 °C 1011.1 hPa WSW 16.1 km/h 30.6 km/h 52% 0 mm 920 W/m2
13:00 27.1 °C 16.4 °C 1011.1 hPa WSW 19.3 km/h 32.2 km/h 52% 0 mm 917 W/m2
13:10 27.1 °C 16.4 °C 1011.1 hPa WSW 14.5 km/h 27.4 km/h 52% 0 mm 912 W/m2
13:20 27.4 °C 16.7 °C 1011.1 hPa WSW 16.1 km/h 24.1 km/h 52% 0 mm 906 W/m2
13:30 27.6 °C 16.8 °C 1010.7 hPa WSW 14.5 km/h 27.4 km/h 52% 0 mm 898 W/m2
13:40 27.4 °C 16.7 °C 1010.7 hPa West 16.1 km/h 32.2 km/h 52% 0 mm 889 W/m2
13:50 27.7 °C 16.3 °C 1010.7 hPa WSW 16.1 km/h 32.2 km/h 50% 0 mm 878 W/m2
14:00 27.9 °C 16.5 °C 1010.7 hPa West 14.5 km/h 27.4 km/h 50% 0 mm 866 W/m2
14:10 27.8 °C 16.1 °C 1010.4 hPa WSW 9.7 km/h 33.8 km/h 49% 0 mm 852 W/m2
14:20 28 °C 16.6 °C 1010.7 hPa WSW 12.9 km/h 29 km/h 50% 0 mm 837 W/m2
14:30 28.1 °C 16.4 °C 1010.4 hPa WSW 12.9 km/h 20.9 km/h 49% 0 mm 820 W/m2
14:40 28.3 °C 16.2 °C 1010.4 hPa WSW 9.7 km/h 19.3 km/h 48% 0 mm 803 W/m2
14:50 28.4 °C 16.3 °C 1010.4 hPa West 11.3 km/h 20.9 km/h 48% 0 mm 784 W/m2
15:00 28.4 °C 16.3 °C 1010.4 hPa WSW 9.7 km/h 25.7 km/h 48% 0 mm 763 W/m2
15:10 28.6 °C 16.2 °C 1010.4 hPa West 12.9 km/h 25.7 km/h 47% 0 mm 742 W/m2
15:20 28.5 °C 16.1 °C 1010.4 hPa West 8 km/h 22.5 km/h 47% 0 mm 719 W/m2
15:30 28.5 °C 16.1 °C 1010.4 hPa West 12.9 km/h 24.1 km/h 47% 0 mm 674 W/m2
15:40 28.4 °C 16 °C 1010.4 hPa WSW 12.9 km/h 24.1 km/h 47% 0 mm 288 W/m2
15:50 28.2 °C 16.2 °C 1010.4 hPa West 8 km/h 24.1 km/h 48% 0 mm 250 W/m2
16:00 28.2 °C 15.2 °C 1010.4 hPa NW 11.3 km/h 27.4 km/h 45% 0 mm 618 W/m2
16:10 28.1 °C 15.7 °C 1010.7 hPa NNW 11.3 km/h 19.3 km/h 47% 0 mm 195 W/m2
16:20 27.9 °C 15.6 °C 1010.4 hPa NW 14.5 km/h 25.7 km/h 47% 0 mm 253 W/m2
16:30 28 °C 14.9 °C 1010.7 hPa WNW 11.3 km/h 22.5 km/h 45% 0 mm 533 W/m2
16:40 28.2 °C 15.2 °C 1010.7 hPa WNW 9.7 km/h 24.1 km/h 45% 0 mm 504 W/m2
16:50 28.5 °C 15.4 °C 1010.7 hPa WNW 11.3 km/h 20.9 km/h 45% 0 mm 474 W/m2
17:00 28.4 °C 15.3 °C 1010.7 hPa West 14.5 km/h 22.5 km/h 45% 0 mm 443 W/m2
17:10 28.4 °C 16 °C 1010.7 hPa West 9.7 km/h 25.7 km/h 47% 0 mm 413 W/m2
17:20 28.8 °C 15.7 °C 1010.7 hPa NW 9.7 km/h 19.3 km/h 45% 0 mm 382 W/m2
17:30 28.7 °C 15.6 °C 1010.7 hPa NW 9.7 km/h 20.9 km/h 45% 0 mm 351 W/m2
17:40 28.5 °C 15.4 °C 1011.1 hPa West 9.7 km/h 19.3 km/h 45% 0 mm 320 W/m2
17:50 28.3 °C 15.2 °C 1011.1 hPa WNW 9.7 km/h 19.3 km/h 45% 0 mm 289 W/m2
18:00 28.1 °C 15.7 °C 1011.1 hPa NW 9.7 km/h 20.9 km/h 47% 0 mm 172 W/m2
18:10 27.6 °C 14.6 °C 1011.1 hPa NW 8 km/h 19.3 km/h 45% 0 mm 90 W/m2
18:20 27.1 °C 14.8 °C 1011.1 hPa NNW 8 km/h 19.3 km/h 47% 0 mm 67 W/m2
18:30 26.7 °C 14.4 °C 1011.4 hPa NNW 4.8 km/h 11.3 km/h 47% 0 mm 70 W/m2
18:40 26.7 °C 14.8 °C 1011.4 hPa NW 4.8 km/h 12.9 km/h 48% 0 mm 130 W/m2
18:50 26.6 °C 14.7 °C 1011.4 hPa WNW 8 km/h 19.3 km/h 48% 0 mm 97 W/m2
19:00 26.5 °C 14.6 °C 1011.4 hPa WNW 3.2 km/h 14.5 km/h 48% 0 mm 78 W/m2
19:10 26.3 °C 14.4 °C 1011.4 hPa WNW 4.8 km/h 12.9 km/h 48% 0 mm 57 W/m2
19:20 26.1 °C 14.6 °C 1011.4 hPa WNW 3.2 km/h 12.9 km/h 49% 0 mm 33 W/m2
19:30 25.7 °C 14.2 °C 1011.7 hPa WNW 3.2 km/h 11.3 km/h 49% 0 mm 18 W/m2
19:40 25.4 °C 14.2 °C 1011.7 hPa NW 1.6 km/h 9.7 km/h 50% 0 mm 10 W/m2
19:50 25 °C 14.4 °C 1011.7 hPa NNW 3.2 km/h 9.7 km/h 52% 0 mm 0 W/m2
20:00 24.6 °C 14.1 °C 1011.7 hPa NNW 1.6 km/h 6.4 km/h 52% 0 mm 0 W/m2
20:10 24.2 °C 14.3 °C 1011.7 hPa WNW 3.2 km/h 8 km/h 54% 0 mm 0 W/m2
20:20 23.7 °C 14.1 °C 1012.1 hPa WNW 3.2 km/h 8 km/h 55% 0 mm 0 W/m2
20:30 23.3 °C 14.3 °C 1012.1 hPa West 3.2 km/h 11.3 km/h 57% 0 mm 0 W/m2
20:40 22.9 °C 13.9 °C 1012.4 hPa West 4.8 km/h 11.3 km/h 57% 0 mm 0 W/m2
20:50 22.4 °C 14 °C 1012.4 hPa West 3.2 km/h 9.7 km/h 59% 0 mm 0 W/m2
21:00 21.9 °C 14.3 °C 1012.8 hPa SW 1.6 km/h 4.8 km/h 62% 0 mm 0 W/m2
21:10 21.4 °C 13.8 °C 1012.8 hPa Calm   4.8 km/h 62% 0 mm 0 W/m2
21:20 21 °C 13.7 °C 1012.8 hPa NW 1.6 km/h 3.2 km/h 63% 0 mm 0 W/m2
21:30 20.6 °C 13.6 °C 1012.8 hPa WSW 3.2 km/h 4.8 km/h 64% 0 mm 0 W/m2
21:40 20 °C 13.2 °C 1012.8 hPa Calm   6.4 km/h 65% 0 mm 0 W/m2
21:50 19.7 °C 13.4 °C 1013.1 hPa SW 1.6 km/h 3.2 km/h 67% 0 mm 0 W/m2
22:00 19.4 °C 13.1 °C 1013.1 hPa Calm   3.2 km/h 67% 0 mm 0 W/m2
22:10 19.1 °C 13.1 °C 1013.1 hPa SSE 1.6 km/h 3.2 km/h 68% 0 mm 0 W/m2
22:20 18.8 °C 13 °C 1013.1 hPa South 1.6 km/h 4.8 km/h 69% 0 mm 0 W/m2
22:30 18.6 °C 13 °C 1013.4 hPa WSW 1.6 km/h 4.8 km/h 70% 0 mm 0 W/m2
22:40 18.2 °C 13.1 °C 1013.4 hPa West 1.6 km/h 4.8 km/h 72% 0 mm 0 W/m2
22:50 17.9 °C 13 °C 1013.8 hPa WNW 4.8 km/h 9.7 km/h 73% 0 mm 0 W/m2
23:00 17.8 °C 12.7 °C 1013.8 hPa WNW 1.6 km/h 9.7 km/h 72% 0 mm 0 W/m2
23:10 17.6 °C 12.7 °C 1013.8 hPa WSW 1.6 km/h 3.2 km/h 73% 0 mm 0 W/m2
23:20 17.3 °C 12.6 °C 1013.8 hPa WSW 1.6 km/h 3.2 km/h 74% 0 mm 0 W/m2
23:30 17.1 °C 12.6 °C 1013.8 hPa WNW 1.6 km/h 3.2 km/h 75% 0 mm 0 W/m2
23:40 16.8 °C 12.3 °C 1014.1 hPa Calm   3.2 km/h 75% 0 mm 0 W/m2
23:50 16.6 °C 12.6 °C 1014.1 hPa Calm   3.2 km/h 77% 0 mm 0 W/m2
Knjazevac, Serbia
Compliments of Weather Underground - 2 mb